Time;durP1;ratioP1;P1;durP2;ratioP2;P2;SDS_P1;SDS_P2;PMS_P1;PMS_P2;Temp;Humidity;BMP_temperature;BMP_pressure;BME280_temperature;BME280_humidity;BME280_pressure;Samples;Min_cycle;Max_cycle;Signal;HPM_P1;HPM_P2
2023/01/23 00:01:00;;;;;;;2.10;1.20;;;2.40;91.80;;;;;;6153508;23;20093;-82
2023/01/23 00:03:26;;;;;;;1.75;1.10;;;2.40;91.80;;;;;;6128918;23;20319;-82
2023/01/23 00:05:57;;;;;;;2.10;1.20;;;2.50;91.80;;;;;;6150979;23;20016;-82
2023/01/23 00:08:23;;;;;;;1.98;1.20;;;2.40;91.80;;;;;;6153693;23;20017;-82
2023/01/23 00:10:49;;;;;;;2.40;1.10;;;2.40;91.80;;;;;;6128987;23;20013;-82
2023/01/23 00:13:16;;;;;;;1.52;1.05;;;2.40;91.80;;;;;;6153359;23;20118;-82
2023/01/23 00:15:41;;;;;;;2.55;1.10;;;2.40;91.80;;;;;;6129690;23;20033;-81
2023/01/23 00:18:07;;;;;;;2.72;1.20;;;2.40;91.80;;;;;;6155545;23;20311;-82
2023/01/23 00:20:33;;;;;;;1.73;0.95;;;2.40;91.80;;;;;;6129424;23;20018;-82
2023/01/23 00:22:58;;;;;;;3.10;1.30;;;2.40;91.80;;;;;;6154099;23;20426;-82
2023/01/23 00:25:24;;;;;;;2.15;1.15;;;2.40;91.80;;;;;;6105140;23;20101;-82
2023/01/23 00:27:49;;;;;;;1.88;1.10;;;2.40;91.80;;;;;;6128764;23;20009;-82
2023/01/23 00:30:16;;;;;;;1.98;1.10;;;2.40;91.80;;;;;;6128774;23;20005;-82
2023/01/23 00:32:41;;;;;;;2.42;1.13;;;2.40;91.80;;;;;;6129648;23;20017;-82
2023/01/23 00:35:07;;;;;;;1.65;1.10;;;2.50;91.90;;;;;;6104591;23;20088;-82
2023/01/23 00:37:33;;;;;;;1.90;1.10;;;2.40;91.90;;;;;;6155637;23;20365;-82
2023/01/23 00:39:58;;;;;;;2.28;1.20;;;2.40;91.90;;;;;;6128899;23;20020;-82
2023/01/23 00:42:24;;;;;;;1.88;0.90;;;2.40;91.90;;;;;;6153450;23;20009;-82
2023/01/23 00:44:50;;;;;;;2.63;1.42;;;2.30;91.90;;;;;;6154076;23;20615;-82
2023/01/23 00:47:15;;;;;;;2.75;1.13;;;2.40;91.90;;;;;;6129003;23;20005;-82
2023/01/23 00:49:41;;;;;;;3.30;1.50;;;2.30;91.90;;;;;;6155246;23;20009;-82
2023/01/23 00:52:06;;;;;;;2.17;1.20;;;2.30;91.90;;;;;;6153467;23;20009;-81
2023/01/23 00:54:32;;;;;;;1.67;1.10;;;2.30;91.90;;;;;;6128604;23;20499;-83
2023/01/23 00:56:58;;;;;;;2.45;1.20;;;2.30;91.90;;;;;;6153534;23;20017;-82
2023/01/23 00:59:23;;;;;;;1.98;0.98;;;2.30;91.90;;;;;;6128669;23;20002;-82
2023/01/23 01:01:49;;;;;;;2.33;1.27;;;2.40;91.90;;;;;;6128369;23;20013;-82
2023/01/23 01:04:15;;;;;;;1.67;1.13;;;2.40;91.90;;;;;;6128132;23;20037;-82
2023/01/23 01:06:41;;;;;;;2.58;1.27;;;2.40;91.90;;;;;;6104035;23;20017;-82
2023/01/23 01:09:06;;;;;;;1.52;1.00;;;2.40;91.90;;;;;;6128368;23;20092;-82
2023/01/23 01:11:32;;;;;;;3.10;1.40;;;2.50;92.00;;;;;;6152747;23;20064;-82
2023/01/23 01:13:58;;;;;;;2.95;1.45;;;2.40;92.00;;;;;;6128198;23;20029;-82
2023/01/23 01:16:23;;;;;;;2.17;1.50;;;2.40;92.00;;;;;;6153245;23;20366;-82
2023/01/23 01:18:49;;;;;;;3.03;1.38;;;2.50;92.00;;;;;;6153015;23;20338;-82
2023/01/23 01:21:16;;;;;;;2.45;1.15;;;2.40;92.00;;;;;;6152752;23;20014;-82
2023/01/23 01:23:42;;;;;;;3.85;1.40;;;2.40;92.00;;;;;;6152830;23;20089;-82
2023/01/23 01:26:09;;;;;;;1.85;1.10;;;2.40;92.00;;;;;;6163955;23;20029;-82
2023/01/23 01:28:37;;;;;;;2.70;1.27;;;2.40;92.00;;;;;;6128341;23;20009;-82
2023/01/23 01:31:06;;;;;;;2.08;1.10;;;2.40;91.90;;;;;;6154884;23;20068;-82
2023/01/23 01:33:33;;;;;;;2.63;1.20;;;2.40;91.90;;;;;;6125856;23;20023;-82
2023/01/23 01:36:00;;;;;;;2.97;1.40;;;2.40;91.90;;;;;;6103956;23;20012;-82
2023/01/23 01:38:27;;;;;;;3.20;1.42;;;2.40;91.90;;;;;;6128446;23;20438;-82
2023/01/23 01:40:52;;;;;;;3.03;1.38;;;2.30;91.90;;;;;;6153989;23;20084;-82
2023/01/23 01:43:22;;;;;;;4.65;1.60;;;2.40;92.00;;;;;;6152589;23;20033;-82
2023/01/23 01:46:11;;;;;;;2.88;1.60;;;2.50;92.00;;;;;;6125244;23;20341;-82
2023/01/23 01:49:06;;;;;;;2.45;1.33;;;2.40;92.00;;;;;;6127290;23;20024;-81
2023/01/23 01:51:49;;;;;;;1.80;1.10;;;2.40;92.00;;;;;;6153914;23;20138;-81
2023/01/23 01:54:36;;;;;;;2.00;1.00;;;2.40;91.90;;;;;;6151888;23;20009;-82
2023/01/23 01:57:27;;;;;;;1.63;0.98;;;2.50;92.00;;;;;;6130298;23;20016;-82
2023/01/23 01:59:58;;;;;;;2.10;1.10;;;2.40;91.90;;;;;;6150572;23;20315;-81
2023/01/23 02:02:28;;;;;;;2.13;1.23;;;2.50;91.90;;;;;;6152684;23;20010;-81
2023/01/23 02:05:00;;;;;;;3.58;1.17;;;2.50;92.00;;;;;;6152338;23;20009;-82
2023/01/23 02:07:31;;;;;;;;;;;2.40;91.90;;;;;;6104548;23;20017;-81
2023/01/23 02:09:59;;;;;;;2.40;1.13;;;2.60;92.00;;;;;;6153741;23;19917;-82
2023/01/23 02:12:25;;;;;;;2.40;1.00;;;2.50;91.90;;;;;;6152198;23;20468;-82
2023/01/23 02:14:51;;;;;;;2.10;1.05;;;2.40;91.90;;;;;;6127852;23;20025;-82
2023/01/23 02:17:18;;;;;;;1.27;0.88;;;2.40;91.90;;;;;;6128927;23;20010;-82
2023/01/23 02:20:02;;;;;;;1.65;1.10;;;2.50;92.00;;;;;;6104866;23;20330;-82
2023/01/23 02:22:46;;;;;;;2.75;1.30;;;2.40;91.90;;;;;;6152181;23;20013;-82
2023/01/23 02:25:23;;;;;;;3.03;1.30;;;2.40;92.00;;;;;;6155779;23;20015;-82
2023/01/23 02:27:48;;;;;;;2.17;1.30;;;2.60;92.00;;;;;;6153764;23;20013;-81
2023/01/23 02:30:14;;;;;;;2.40;1.30;;;2.50;92.00;;;;;;6129102;23;20509;-82
2023/01/23 02:32:40;;;;;;;2.58;1.40;;;2.50;92.00;;;;;;6155635;23;20020;-82
2023/01/23 02:35:15;;;;;;;2.72;1.58;;;2.50;92.00;;;;;;6154284;23;20041;-82
2023/01/23 02:37:45;;;;;;;2.03;1.25;;;2.60;92.00;;;;;;6151832;23;20044;-81
2023/01/23 02:40:11;;;;;;;2.70;1.30;;;2.40;92.00;;;;;;6151634;23;20009;-82
2023/01/23 02:42:41;;;;;;;2.90;1.40;;;2.40;92.00;;;;;;6155738;23;20005;-82
2023/01/23 02:45:07;;;;;;;3.15;1.50;;;2.50;92.00;;;;;;6155722;23;20499;-82
2023/01/23 02:47:33;;;;;;;2.35;1.17;;;2.50;92.00;;;;;;6155040;23;20012;-82
2023/01/23 02:49:59;;;;;;;2.65;1.27;;;2.60;92.00;;;;;;6104797;23;20006;-82
2023/01/23 02:52:24;;;;;;;2.92;1.25;;;2.50;92.00;;;;;;6154218;23;20005;-82
2023/01/23 02:54:50;;;;;;;2.40;1.33;;;2.50;92.00;;;;;;6128770;23;20021;-81
2023/01/23 02:57:16;;;;;;;2.47;1.23;;;2.50;92.00;;;;;;6129128;23;20038;-82
2023/01/23 03:02:21;;;;;;;2.08;1.10;;;2.60;92.00;;;;;;6154992;23;20064;-82
2023/01/23 03:04:47;;;;;;;1.75;1.05;;;2.60;92.00;;;;;;6128947;23;20023;-82
2023/01/23 03:07:12;;;;;;;1.23;0.90;;;2.50;92.00;;;;;;6153505;23;20045;-81
2023/01/23 03:09:38;;;;;;;1.88;0.95;;;2.60;92.00;;;;;;6154379;23;20056;-82
2023/01/23 03:12:04;;;;;;;2.50;1.48;;;2.60;92.00;;;;;;6153482;23;20513;-82
2023/01/23 03:14:31;;;;;;;1.13;0.85;;;2.70;92.10;;;;;;6104609;23;20101;-82
2023/01/23 03:16:57;;;;;;;2.25;1.20;;;2.60;92.00;;;;;;6153506;23;20502;-82
2023/01/23 03:19:25;;;;;;;2.80;1.38;;;2.60;92.00;;;;;;6154933;23;20017;-82
2023/01/23 03:21:52;;;;;;;1.98;1.10;;;2.60;92.00;;;;;;6153746;23;20468;-80
2023/01/23 03:24:19;;;;;;;3.25;1.77;;;2.60;92.00;;;;;;6129648;23;20013;-82
2023/01/23 03:26:46;;;;;;;2.10;1.17;;;2.60;92.00;;;;;;6104651;23;20037;-82
2023/01/23 03:31:59;;;;;;;2.80;1.50;;;2.60;92.00;;;;;;6153739;23;20021;-82
2023/01/23 03:34:25;;;;;;;2.88;1.25;;;2.60;92.00;;;;;;6153291;23;20037;-81
2023/01/23 03:36:50;;;;;;;4.40;1.65;;;2.60;92.00;;;;;;6104661;23;20013;-82
2023/01/23 03:41:59;;;;;;;4.50;1.60;;;2.70;92.10;;;;;;6154821;23;20018;-82
2023/01/23 03:44:24;;;;;;;2.53;1.10;;;2.60;92.00;;;;;;6153336;23;20005;-82
2023/01/23 03:46:51;;;;;;;2.78;1.40;;;2.60;92.30;;;;;;6128499;23;20048;-82
2023/01/23 03:49:17;;;;;;;2.15;1.23;;;2.50;92.00;;;;;;6153273;23;20010;-82
2023/01/23 03:51:43;;;;;;;2.67;1.33;;;2.60;92.10;;;;;;6128561;23;20067;-81
2023/01/23 03:54:09;;;;;;;2.00;1.05;;;2.60;92.10;;;;;;6153037;23;20462;-82
2023/01/23 03:56:36;;;;;;;3.35;1.50;;;2.60;92.10;;;;;;6153151;23;20006;-81
2023/01/23 03:59:02;;;;;;;2.05;1.20;;;2.60;92.10;;;;;;6128848;23;20005;-82
2023/01/23 04:01:27;;;;;;;2.22;1.30;;;2.70;92.10;;;;;;6128712;23;20016;-82
2023/01/23 04:03:53;;;;;;;2.42;1.13;;;2.60;92.10;;;;;;6104116;23;20116;-82
2023/01/23 04:06:19;;;;;;;1.50;1.02;;;2.60;92.10;;;;;;6153370;23;20449;-82
2023/01/23 04:08:44;;;;;;;2.53;1.50;;;2.60;92.10;;;;;;6153527;23;20315;-82
2023/01/23 04:11:10;;;;;;;2.45;1.27;;;2.70;92.10;;;;;;6153676;23;20013;-82
2023/01/23 04:13:37;;;;;;;2.67;1.35;;;2.70;92.10;;;;;;6104064;23;20441;-82
2023/01/23 04:16:04;;;;;;;3.25;1.63;;;2.60;92.10;;;;;;6128448;23;20009;-82
2023/01/23 04:18:30;;;;;;;2.33;1.30;;;2.60;92.10;;;;;;6104483;23;20006;-82
2023/01/23 04:20:56;;;;;;;2.55;1.38;;;2.70;92.10;;;;;;6153280;23;20009;-82
2023/01/23 04:23:23;;;;;;;1.88;1.23;;;2.70;92.10;;;;;;6104372;23;20093;-81
2023/01/23 04:25:52;;;;;;;2.72;1.27;;;2.60;92.10;;;;;;6104218;23;20009;-81
2023/01/23 04:28:18;;;;;;;1.58;1.20;;;2.70;92.10;;;;;;6125469;23;20382;-81
2023/01/23 04:30:45;;;;;;;2.03;1.25;;;2.70;92.10;;;;;;6128590;23;20013;-79
2023/01/23 04:33:11;;;;;;;2.70;1.52;;;2.60;92.10;;;;;;6128438;23;20021;-81
2023/01/23 04:35:37;;;;;;;2.90;1.50;;;2.70;92.10;;;;;;6154645;23;20311;-82
2023/01/23 04:38:05;;;;;;;2.30;1.30;;;2.70;92.10;;;;;;6128506;23;20059;-82
2023/01/23 04:40:30;;;;;;;3.30;1.50;;;2.70;92.10;;;;;;6152531;23;20434;-82
2023/01/23 04:42:56;;;;;;;4.53;1.13;;;2.70;92.10;;;;;;6128521;23;20033;-81
2023/01/23 04:45:22;;;;;;;2.20;1.30;;;2.60;92.10;;;;;;6152921;23;20020;-82
2023/01/23 04:47:47;;;;;;;2.78;1.20;;;2.70;92.10;;;;;;6128605;23;20009;-82
2023/01/23 04:50:13;;;;;;;2.38;1.30;;;2.70;92.10;;;;;;6104154;23;20036;-82
2023/01/23 04:52:39;;;;;;;2.90;1.27;;;2.70;92.10;;;;;;6154568;23;20088;-82
2023/01/23 04:55:05;;;;;;;4.15;1.73;;;2.80;92.10;;;;;;6129251;23;20009;-82
2023/01/23 04:57:30;;;;;;;3.00;1.58;;;2.80;92.40;;;;;;6152959;23;20107;-82
2023/01/23 04:59:56;;;;;;;1.65;1.08;;;2.70;92.10;;;;;;6128358;23;20009;-82
2023/01/23 05:02:22;;;;;;;2.50;1.15;;;2.80;92.10;;;;;;6153470;23;20060;-82
2023/01/23 05:04:47;;;;;;;2.10;1.20;;;2.70;92.10;;;;;;6128751;23;20013;-82
2023/01/23 05:07:13;;;;;;;1.73;1.08;;;2.70;92.10;;;;;;6153313;23;20010;-82
2023/01/23 05:09:39;;;;;;;2.95;1.40;;;2.70;92.10;;;;;;6128924;23;20016;-82
2023/01/23 05:12:05;;;;;;;2.20;1.30;;;2.80;92.10;;;;;;6154832;23;20018;-81
2023/01/23 05:14:31;;;;;;;2.75;1.15;;;2.70;92.10;;;;;;6153773;23;20448;-81
2023/01/23 05:16:57;;;;;;;3.15;1.55;;;2.70;92.10;;;;;;6155349;23;20080;-82
2023/01/23 05:19:23;;;;;;;1.90;1.13;;;2.70;92.10;;;;;;6153234;23;20014;-82
2023/01/23 05:21:49;;;;;;;3.20;1.58;;;2.90;92.20;;;;;;6153225;23;20005;-82
2023/01/23 05:24:15;;;;;;;2.60;1.50;;;2.80;92.20;;;;;;6128422;23;20017;-82
2023/01/23 05:26:41;;;;;;;2.15;1.20;;;2.70;92.10;;;;;;6155110;23;20088;-81
2023/01/23 05:29:07;;;;;;;2.47;1.30;;;2.70;92.10;;;;;;6154424;23;20021;-82
2023/01/23 05:31:33;;;;;;;1.95;1.13;;;2.80;92.10;;;;;;6153710;23;20009;-81
2023/01/23 05:33:58;;;;;;;2.33;1.20;;;2.80;92.20;;;;;;6152877;23;20489;-81
2023/01/23 05:36:24;;;;;;;2.25;1.08;;;2.70;92.10;;;;;;6152966;23;20316;-81
2023/01/23 05:38:50;;;;;;;2.72;1.33;;;2.70;92.10;;;;;;6153445;23;20093;-81
2023/01/23 05:41:15;;;;;;;1.67;1.10;;;2.80;92.20;;;;;;6152720;23;20059;-82
2023/01/23 05:43:42;;;;;;;3.20;1.60;;;2.70;92.10;;;;;;6104010;23;20472;-81
2023/01/23 05:46:08;;;;;;;3.55;1.80;;;2.80;92.20;;;;;;6103915;23;20040;-81
2023/01/23 05:48:33;;;;;;;2.15;1.35;;;2.80;92.20;;;;;;6128331;23;20019;-81
2023/01/23 05:51:02;;;;;;;2.80;1.58;;;2.80;92.20;;;;;;6153608;23;20013;-82
2023/01/23 05:53:27;;;;;;;2.53;1.50;;;2.80;92.20;;;;;;6102844;23;20014;-81
2023/01/23 05:55:53;;;;;;;1.58;1.00;;;2.70;92.10;;;;;;6129594;23;20133;-81
2023/01/23 05:58:19;;;;;;;2.45;1.38;;;2.70;92.10;;;;;;6129574;23;20006;-81
2023/01/23 06:00:44;;;;;;;3.05;1.55;;;2.80;92.20;;;;;;6155845;23;20032;-81
2023/01/23 06:03:10;;;;;;;2.88;1.52;;;2.70;92.20;;;;;;6154311;23;20020;-79
2023/01/23 06:05:35;;;;;;;2.67;1.40;;;2.70;92.20;;;;;;6155320;23;20016;-79
2023/01/23 06:08:01;;;;;;;1.92;1.23;;;2.80;92.20;;;;;;6129399;23;20009;-79
2023/01/23 06:10:27;;;;;;;3.17;1.58;;;2.80;92.20;;;;;;6150942;23;20096;-80
2023/01/23 06:12:52;;;;;;;1.98;1.05;;;2.80;92.20;;;;;;6153764;23;20056;-80
2023/01/23 06:15:18;;;;;;;2.35;1.20;;;2.80;92.20;;;;;;6154391;23;20009;-80
2023/01/23 06:17:44;;;;;;;2.75;1.55;;;2.80;92.50;;;;;;6154024;23;20449;-79
2023/01/23 06:20:11;;;;;;;2.90;1.27;;;2.80;92.20;;;;;;6129407;23;20009;-77
2023/01/23 06:22:37;;;;;;;2.58;1.30;;;2.80;92.20;;;;;;6129723;23;20006;-78
2023/01/23 06:25:02;;;;;;;2.97;1.67;;;2.80;92.20;;;;;;6154726;23;20020;-79
2023/01/23 06:27:28;;;;;;;2.03;1.40;;;2.80;92.20;;;;;;6153797;23;20013;-79
2023/01/23 06:29:54;;;;;;;3.03;1.45;;;2.80;92.20;;;;;;6154528;23;20047;-79
2023/01/23 06:32:20;;;;;;;3.25;1.63;;;2.90;92.20;;;;;;6129227;23;20126;-79
2023/01/23 06:34:45;;;;;;;2.92;1.55;;;2.90;92.20;;;;;;6130060;23;20013;-79
2023/01/23 06:37:11;;;;;;;3.45;1.33;;;2.80;92.20;;;;;;6104934;23;20322;-80
2023/01/23 06:39:37;;;;;;;2.40;1.30;;;2.90;92.20;;;;;;6155271;23;20054;-80
2023/01/23 06:42:04;;;;;;;3.47;1.67;;;2.80;92.10;;;;;;6154148;23;20009;-79
2023/01/23 06:44:31;;;;;;;3.65;1.40;;;2.80;92.10;;;;;;6129877;23;20010;-78
2023/01/23 06:46:56;;;;;;;2.80;1.58;;;3.00;92.20;;;;;;6105317;23;20026;-79
2023/01/23 06:49:22;;;;;;;3.55;1.80;;;2.80;92.10;;;;;;6155487;23;20089;-79
2023/01/23 06:51:47;;;;;;;2.85;1.58;;;2.80;92.10;;;;;;6129307;23;20036;-78
2023/01/23 06:54:13;;;;;;;2.55;1.45;;;2.80;92.10;;;;;;6129287;23;20009;-79
2023/01/23 06:56:42;;;;;;;2.95;1.45;;;2.80;92.10;;;;;;6129255;23;20056;-78
2023/01/23 06:59:07;;;;;;;4.47;1.75;;;2.90;92.10;;;;;;6129788;23;20014;-79
2023/01/23 07:01:33;;;;;;;3.22;1.45;;;2.90;92.10;;;;;;6153572;23;20096;-78
2023/01/23 07:03:59;;;;;;;3.50;1.70;;;2.90;92.10;;;;;;6129090;23;20064;-79
2023/01/23 07:06:25;;;;;;;2.72;1.38;;;2.90;92.20;;;;;;6153682;23;20390;-75
2023/01/23 07:19:47;;;;;;;3.45;1.35;;;2.90;92.10;;;;;;5786763;24;20557;-76
2023/01/23 07:22:17;;;;;;;2.75;1.60;;;3.00;92.10;;;;;;5790400;24;20019;-76
2023/01/23 07:24:42;;;;;;;3.42;1.92;;;2.90;92.10;;;;;;5768531;24;20023;-76
2023/01/23 07:27:08;;;;;;;3.90;1.90;;;2.90;92.10;;;;;;5790277;24;20078;-76
2023/01/23 07:29:34;;;;;;;3.63;1.70;;;2.90;92.10;;;;;;5768619;24;20356;-76
2023/01/23 07:32:00;;;;;;;3.28;1.90;;;2.90;92.10;;;;;;5769371;24;20106;-76
2023/01/23 07:34:26;;;;;;;4.25;1.90;;;2.90;92.10;;;;;;5768753;24;20051;-75
2023/01/23 07:37:12;;;;;;;4.43;2.10;;;2.90;92.10;;;;;;5790365;24;20026;-77
2023/01/23 07:39:51;;;;;;;2.55;1.40;;;2.90;92.10;;;;;;5771825;24;20094;-78
2023/01/23 07:42:27;;;;;;;4.20;1.70;;;2.90;92.40;;;;;;5786568;24;20018;-78
2023/01/23 07:44:53;;;;;;;3.50;1.67;;;3.00;92.10;;;;;;5929402;24;20048;-77
2023/01/23 07:47:24;;;;;;;3.08;2.00;;;3.00;92.10;;;;;;5923066;24;20485;-78
2023/01/23 07:50:04;;;;;;;3.15;1.67;;;3.00;92.10;;;;;;5921085;23;20054;-77
2023/01/23 07:52:32;;;;;;;3.33;1.60;;;3.00;92.10;;;;;;6002952;23;20102;-79
2023/01/23 07:54:58;;;;;;;3.30;1.70;;;3.00;92.10;;;;;;5987347;23;20036;-78
2023/01/23 07:57:26;;;;;;;3.28;1.55;;;3.10;92.10;;;;;;6108058;23;21309;-78
2023/01/23 07:59:58;;;;;;;3.05;1.65;;;3.00;92.10;;;;;;6119100;23;20010;-77
2023/01/23 08:02:29;;;;;;;3.67;1.73;;;3.10;92.10;;;;;;6149728;23;20021;-77
2023/01/23 08:04:56;;;;;;;2.35;1.30;;;3.00;92.10;;;;;;6161181;23;20049;-78
2023/01/23 08:07:22;;;;;;;2.78;1.45;;;3.10;92.10;;;;;;6137114;23;20014;-77
2023/01/23 08:09:48;;;;;;;3.75;1.70;;;3.10;92.10;;;;;;6124873;23;20468;-78
2023/01/23 08:12:17;;;;;;;3.45;1.55;;;3.00;92.10;;;;;;6086036;23;20018;-77
2023/01/23 08:14:42;;;;;;;3.00;1.60;;;3.20;92.10;;;;;;6022853;23;20047;-77
2023/01/23 08:17:08;;;;;;;2.97;1.50;;;3.00;92.10;;;;;;6073282;23;20022;-78
2023/01/23 08:19:33;;;;;;;3.25;1.50;;;3.10;92.10;;;;;;6046805;23;20019;-78
2023/01/23 08:21:59;;;;;;;2.97;1.70;;;3.10;92.10;;;;;;6048422;23;20006;-77
2023/01/23 08:24:25;;;;;;;2.35;1.50;;;3.20;92.10;;;;;;6086494;23;20063;-78
2023/01/23 08:26:53;;;;;;;2.38;1.30;;;3.10;92.00;;;;;;6045008;23;20018;-78
2023/01/23 08:29:19;;;;;;;1.95;1.10;;;3.20;92.10;;;;;;6018515;23;20043;-76
2023/01/23 08:31:44;;;;;;;3.17;1.60;;;3.20;92.10;;;;;;6069740;23;20020;-77
2023/01/23 08:34:10;;;;;;;3.15;1.70;;;3.20;92.10;;;;;;6074958;23;19998;-77
2023/01/23 08:36:36;;;;;;;3.22;1.50;;;3.30;92.10;;;;;;6058543;23;20065;-77
2023/01/23 08:39:04;;;;;;;2.70;1.67;;;3.20;92.00;;;;;;6057505;23;20038;-78
2023/01/23 08:41:30;;;;;;;2.80;1.20;;;3.30;92.30;;;;;;6104290;23;20014;-78
2023/01/23 08:44:08;;;;;;;2.42;1.23;;;3.20;92.00;;;;;;6080206;23;20094;-76
2023/01/23 08:46:45;;;;;;;3.67;1.63;;;3.30;92.00;;;;;;6072883;23;20093;-77
2023/01/23 08:49:11;;;;;;;3.50;1.80;;;3.30;92.00;;;;;;6087286;23;20051;-77
2023/01/23 08:51:36;;;;;;;3.38;1.75;;;3.50;92.10;;;;;;6136437;23;20025;-75
2023/01/23 08:54:39;;;;;;;4.35;1.70;;;3.30;92.00;;;;;;6159217;23;20016;-79
2023/01/23 08:57:08;;;;;;;2.75;1.35;;;3.40;92.00;;;;;;6142134;23;20022;-78
2023/01/23 08:59:45;;;;;;;3.22;1.75;;;3.40;92.00;;;;;;6138512;23;20114;-79
2023/01/23 09:02:11;;;;;;;3.75;1.50;;;3.30;91.90;;;;;;5997252;23;20020;-78
2023/01/23 09:04:40;;;;;;;4.03;1.70;;;3.40;91.90;;;;;;5948813;23;20144;-78
2023/01/23 09:07:05;;;;;;;3.42;1.60;;;3.40;91.90;;;;;;5987525;23;20020;-78
2023/01/23 09:09:31;;;;;;;3.35;1.50;;;3.50;91.90;;;;;;5924677;24;20113;-79
2023/01/23 09:11:58;;;;;;;3.03;1.60;;;3.50;92.00;;;;;;5888201;24;20179;-78
2023/01/23 09:14:23;;;;;;;2.83;1.40;;;3.50;91.90;;;;;;5949275;24;20024;-78
2023/01/23 09:16:49;;;;;;;3.97;1.70;;;3.60;91.90;;;;;;5934145;24;20537;-79
2023/01/23 09:19:15;;;;;;;3.13;1.55;;;3.60;91.90;;;;;;5949332;24;20016;-77
2023/01/23 09:21:46;;;;;;;3.35;1.63;;;3.60;91.90;;;;;;5913862;24;20508;-78
2023/01/23 09:25:41;;;;;;;3.72;1.63;;;3.60;91.90;;;;;;5901551;24;20055;-79
2023/01/23 09:28:44;;;;;;;2.60;1.40;;;3.60;91.90;;;;;;5915281;24;20055;-81
2023/01/23 09:34:49;;;;;;;2.72;1.30;;;3.70;91.90;;;;;;5932960;24;20032;-76
2023/01/23 09:37:15;;;;;;;2.40;1.30;;;3.80;91.80;;;;;;5907566;24;20021;-78
2023/01/23 09:39:47;;;;;;;3.65;1.70;;;3.70;91.80;;;;;;5890851;24;20048;-79
2023/01/23 09:42:25;;;;;;;;;;;3.90;91.90;;;;;;5952869;24;20027;-79
2023/01/23 09:46:01;;;;;;;2.60;1.30;;;3.70;91.80;;;;;;5962607;24;19938;-80
2023/01/23 09:48:52;;;;;;;3.00;1.33;;;3.80;91.80;;;;;;5949464;24;20954;-82
2023/01/23 09:52:14;;;;;;;4.70;1.90;;;4.00;91.90;;;;;;5944737;24;20017;-80
2023/01/23 09:54:50;;;;;;;2.53;1.42;;;3.70;91.80;;;;;;5927355;24;20053;-78
2023/01/23 10:01:08;;;;;;;3.88;1.45;;;3.80;91.80;;;;;;5940499;24;20451;-77
2023/01/23 10:03:34;;;;;;;3.28;1.65;;;3.80;91.80;;;;;;5927680;24;20330;-77
2023/01/23 10:06:17;;;;;;;2.70;1.40;;;3.80;91.70;;;;;;5951762;24;20125;-75
2023/01/23 10:09:15;;;;;;;3.63;1.67;;;3.90;91.80;;;;;;5950358;24;20021;-77
2023/01/23 10:11:55;;;;;;;3.08;1.63;;;3.90;91.70;;;;;;5974113;24;20124;-76
2023/01/23 10:14:55;;;;;;;3.65;1.90;;;3.90;91.70;;;;;;5926870;24;20404;-78
2023/01/23 10:17:45;;;;;;;3.38;1.95;;;3.90;91.70;;;;;;5931390;24;20047;-78
2023/01/23 10:20:44;;;;;;;2.72;1.60;;;3.90;91.70;;;;;;5923679;24;20150;-77
2023/01/23 10:23:36;;;;;;;2.90;1.40;;;4.00;91.70;;;;;;5905526;24;20025;-77
2023/01/23 10:26:02;;;;;;;3.35;1.60;;;4.00;91.70;;;;;;5931359;24;20021;-77
2023/01/23 10:28:37;;;;;;;3.33;1.92;;;4.10;91.70;;;;;;5904530;24;20017;-77
2023/01/23 10:31:09;;;;;;;4.18;1.90;;;4.10;91.70;;;;;;5882502;24;20463;-77
2023/01/23 10:33:45;;;;;;;3.90;1.80;;;4.10;91.70;;;;;;5864960;24;20488;-77
2023/01/23 10:37:02;;;;;;;2.78;1.58;;;4.20;91.60;;;;;;5944462;23;20016;-79
2023/01/23 10:40:00;;;;;;;3.65;1.70;;;4.20;91.60;;;;;;6042139;23;20015;-78
2023/01/23 10:42:27;;;;;;;3.25;1.50;;;4.30;91.60;;;;;;6011381;23;20091;-79
2023/01/23 10:44:58;;;;;;;3.08;1.50;;;4.30;91.60;;;;;;5937016;23;20496;-78
2023/01/23 10:47:38;;;;;;;;;;;4.30;91.60;;;;;;5905192;24;20100;-79
2023/01/23 10:50:08;;;;;;;3.40;1.63;;;4.40;91.60;;;;;;5940982;24;19922;-78
2023/01/23 10:52:45;;;;;;;2.63;1.42;;;4.30;91.50;;;;;;5960212;24;20046;-77
2023/01/23 10:55:32;;;;;;;2.60;1.50;;;4.40;91.50;;;;;;5961456;23;20024;-77
2023/01/23 10:58:02;;;;;;;3.90;1.90;;;4.30;91.50;;;;;;5957930;23;20020;-79
2023/01/23 11:00:43;;;;;;;4.45;2.08;;;4.40;91.50;;;;;;5963292;24;20012;-78
2023/01/23 11:03:28;;;;;;;3.30;1.88;;;4.40;91.80;;;;;;5935683;23;20054;-77
2023/01/23 11:06:02;;;;;;;3.58;1.65;;;4.50;91.60;;;;;;5957227;24;20065;-78
2023/01/23 11:09:17;;;;;;;3.67;1.95;;;4.50;91.50;;;;;;5933997;23;20391;-78
2023/01/23 11:11:58;;;;;;;3.33;1.85;;;4.60;91.40;;;;;;5901807;24;20041;-77
2023/01/23 11:14:23;;;;;;;3.90;2.08;;;4.80;91.40;;;;;;5906065;24;20059;-77
2023/01/23 11:17:01;;;;;;;4.65;1.90;;;4.70;91.40;;;;;;5981004;23;20015;-78
2023/01/23 11:19:57;;;;;;;4.35;2.00;;;4.80;91.40;;;;;;6012468;23;20019;-78
2023/01/23 11:23:54;;;;;;;4.05;1.70;;;4.70;91.40;;;;;;5949821;24;20039;-78
2023/01/23 11:26:19;;;;;;;4.00;2.00;;;4.80;91.40;;;;;;5939866;24;20038;-78
2023/01/23 11:28:51;;;;;;;3.17;1.83;;;4.90;91.40;;;;;;5896997;24;20021;-77
2023/01/23 11:31:21;;;;;;;4.88;2.03;;;4.80;91.30;;;;;;5869255;24;20017;-77
2023/01/23 11:37:17;;;;;;;3.85;1.88;;;4.90;91.20;;;;;;5886011;24;20013;-79
2023/01/23 11:43:01;;;;;;;3.42;1.88;;;5.10;91.10;;;;;;5886275;24;20420;-77
2023/01/23 11:45:53;;;;;;;4.70;2.05;;;5.00;91.10;;;;;;5901704;24;20017;-78
2023/01/23 11:48:51;;;;;;;3.00;1.80;;;5.10;91.10;;;;;;5900076;24;20455;-78
2023/01/23 11:51:35;;;;;;;4.03;2.15;;;5.10;91.10;;;;;;5883715;24;20025;-78
2023/01/23 11:54:50;;;;;;;3.70;2.20;;;5.00;91.10;;;;;;6039709;23;20086;-81
2023/01/23 12:05:23;;;;;;;4.47;2.30;;;4.90;91.20;;;;;;6102893;23;20025;-81
2023/01/23 12:19:26;;;;;;;2.70;1.55;;;4.90;91.30;;;;;;5892057;24;20118;-80
2023/01/23 12:22:17;;;;;;;3.55;1.85;;;4.90;91.30;;;;;;5947091;24;20033;-79
2023/01/23 12:25:00;;;;;;;3.10;1.80;;;4.90;91.30;;;;;;5914479;24;20030;-79
2023/01/23 12:46:19;;;;;;;4.90;2.17;;;5.10;91.10;;;;;;5935194;24;20590;-81
2023/01/23 12:49:03;;;;;;;2.60;1.50;;;5.10;91.10;;;;;;5984404;23;20023;-82
2023/01/23 12:56:08;;;;;;;3.70;1.98;;;5.10;91.10;;;;;;5890242;24;20036;-79
2023/01/23 13:35:00;;;;;;;4.18;2.03;;;5.20;90.80;;;;;;5873433;24;20521;-81
2023/01/23 13:37:49;;;;;;;3.83;2.20;;;5.10;90.90;;;;;;5880096;24;20025;-82
2023/01/23 13:40:19;;;;;;;3.53;1.80;;;5.10;91.00;;;;;;5908057;24;20118;-82
2023/01/23 13:42:44;;;;;;;3.30;1.58;;;5.10;91.00;;;;;;5915523;24;20028;-80
2023/01/23 13:45:26;;;;;;;4.60;2.03;;;5.10;91.00;;;;;;5908169;24;20021;-83
2023/01/23 13:58:19;;;;;;;4.05;1.80;;;5.00;91.20;;;;;;5980362;24;20402;-79
2023/01/23 14:05:15;;;;;;;4.03;1.85;;;4.90;91.20;;;;;;5878278;24;20022;-83
2023/01/23 14:11:40;;;;;;;3.45;1.70;;;4.90;91.10;;;;;;5814051;24;20028;-78
2023/01/23 14:17:07;;;;;;;3.17;1.70;;;4.80;91.10;;;;;;5813189;24;20050;-79
2023/01/23 14:19:54;;;;;;;2.72;1.67;;;4.80;91.10;;;;;;5816013;24;20079;-79
2023/01/23 14:22:21;;;;;;;2.88;1.60;;;4.90;91.10;;;;;;5867926;24;20022;-78
2023/01/23 14:24:51;;;;;;;2.55;1.25;;;4.90;91.10;;;;;;5861031;24;20343;-78
2023/01/23 14:27:32;;;;;;;3.30;1.60;;;4.90;91.10;;;;;;5875484;24;20025;-79
2023/01/23 14:30:00;;;;;;;4.38;1.75;;;4.90;91.00;;;;;;5925282;24;20074;-78
2023/01/23 14:32:32;;;;;;;2.72;1.58;;;4.90;91.00;;;;;;5901591;24;20024;-80
2023/01/23 14:35:02;;;;;;;2.15;1.38;;;4.90;91.00;;;;;;5900920;24;20022;-78
2023/01/23 14:37:32;;;;;;;3.63;2.17;;;5.00;91.10;;;;;;5900734;24;20078;-78
2023/01/23 14:41:10;;;;;;;3.72;1.75;;;5.00;91.00;;;;;;5929681;24;20012;-82
2023/01/23 14:43:46;;;;;;;2.10;1.40;;;5.10;90.90;;;;;;6066284;23;20037;-81
2023/01/23 14:46:33;;;;;;;3.30;1.55;;;5.10;90.80;;;;;;6070170;23;20006;-83
2023/01/23 14:48:59;;;;;;;2.72;1.38;;;5.40;91.10;;;;;;6138399;23;20013;-79
2023/01/23 14:55:09;;;;;;;2.58;1.42;;;6.00;90.30;;;;;;6081839;23;20034;-80
2023/01/23 14:58:16;;;;;;;2.88;1.38;;;6.30;89.10;;;;;;5978737;23;20516;-80
2023/01/23 15:00:47;;;;;;;2.33;1.42;;;6.30;88.40;;;;;;5918770;24;20021;-80
2023/01/23 15:03:55;;;;;;;2.40;1.30;;;6.20;88.70;;;;;;5798718;24;20026;-80
2023/01/23 15:07:01;;;;;;;2.42;1.33;;;6.20;88.80;;;;;;5823884;24;20026;-79
2023/01/23 15:09:56;;;;;;;2.20;1.25;;;6.10;88.80;;;;;;5849955;24;20559;-81
2023/01/23 15:12:31;;;;;;;3.10;1.60;;;5.80;89.20;;;;;;5798776;24;20034;-78
2023/01/23 15:16:07;;;;;;;3.60;1.80;;;5.60;89.50;;;;;;5835400;24;20058;-76
2023/01/23 15:54:24;;;;;;;2.53;1.40;;;4.80;90.70;;;;;;5817189;24;20576;-80
2023/01/23 16:37:28;;;;;;;3.60;1.40;;;4.50;90.60;;;;;;5658227;25;20119;-78
2023/01/23 16:52:02;;;;;;;1.50;0.98;;;4.50;90.60;;;;;;5804081;24;20023;-78
2023/01/23 17:02:46;;;;;;;2.95;1.40;;;4.50;90.60;;;;;;6189761;23;20083;-79
2023/01/23 17:19:15;;;;;;;1.45;1.00;;;4.40;90.60;;;;;;5886163;24;20078;-78
2023/01/23 17:21:42;;;;;;;1.27;1.02;;;4.30;90.60;;;;;;5900522;24;20048;-78
2023/01/23 17:24:13;;;;;;;1.98;1.20;;;4.30;90.60;;;;;;5924069;24;20017;-78
2023/01/23 17:26:39;;;;;;;2.60;1.30;;;4.40;90.60;;;;;;5923413;24;20126;-78
2023/01/23 17:29:05;;;;;;;2.97;1.60;;;4.40;90.60;;;;;;5923743;24;20017;-78
2023/01/23 17:31:31;;;;;;;3.17;1.50;;;4.40;90.60;;;;;;5872999;24;20490;-78